Nagasaki Airport
RJFU : now visible

Airfield :











YOU CAN JOIN US ON...

 
LOGIN :

Register | Disclaimer

   EN    FR    IT 

 









Legend :    VFR   Marginal VFR   IFR   Intensive IFR   Very Intensive IFR
Visi :
Ceiling :
>= 8 km
>= 3000ft
5 to 8 km
1000 to 3000 ft
1500m to 5 km
500 to 1000 ft
800 to 1500m
200 to 500 ft
< 800m
< 200 ft
Symbols :   Thunderstorms  Fog  Heavy snow  Heavy precipitations  Wind > 20 kt






- Airport Elevation : 15 ft
- IATA code : NGS


RJFU - Nagasaki

EXPIRED METARs :
  • 211200Z 30005KT 5000 -SHRA BR FEW005 SCT008 BKN020 17/17 Q1009
  • 211100Z 30008KT 9999 FEW003 BKN020 17/17 Q1009
  • 211000Z 32008KT 9999 FEW003 SCT008 BKN015 17/17 Q1008
  • 210900Z 32008KT 9999 -SHRA FEW003 BKN015 17/17 Q1008

TAF TAF RJFU
Valid from the 21 at 12:00 until the 22 at 18:00 UTC


211105Z 2112/2218 33005KT 8000 FEW005 SCT010 BKN015
TEMPO 2115/2200 FEW005 BKN008 BKN015
RJJJ FIR / Asia



MET'MAP, your aeronautical weather chart ! - Copyright ORBIFLY December 2007 - Disclaimer

ORBIFLY MET'MAP TEAM :

Programming & Development : Alexandra Zaïnal
Original concept : Baudouin d'Aumeries
Technical & hardware support : Manuel Goepfert
Assistance : Marc-Olivier Méhu




SOURCES & CREDITS :

   NOAA       Earth
Advisory